PWSweather.com
Personal Weather Stations
Station Observations
LOBIOS
Galicia, LobiosES

GaliciaLobiosES

Lat: 41.895, Lon: -8.091667

Elevation: 1597

Station Type: Automática/Davis Vantage Pro2 Plus

www.meteolobios.es

High Low Average
Temperature 58.4°F14.7°C 39.3°F4.1°C 48.6°F9.2°C
Dew Point 44.0°F6.7°C 36.2°F2.3°C 39.4°F4.1°C
Winds 18.4 mph 29.6 kmh Calm Calm 7.0 mph ENE11.3 kmh ENE
Wind Gusts 26.5 mph42.6 kmh -- 9.0 mph14.5 kmh
Humidity 94% 46% 73%
Pressure 30.64 in1037.6 mb 30.54 in1034.2 mb -
Precipitation 0.00 in0.0 mm - -
Hour Temp Dew Point Humidity Winds Wind Gusts Pressure Precip Precip Rate Daily Precip Total
12:00 AM 47.4°F8.6°C 43.7°F6.5°C 87% Calm Calm -- 30.61 in1036.6 mb - 0.00 in0.0 mm 0.00 in0.0 mm
12:10 AM 47.4°F8.6°C 43.7°F6.5°C 87% Calm Calm 1.1 mph1.8 kmh 30.60 in1036.2 mb - 0.00 in0.0 mm 0.00 in0.0 mm
12:20 AM 47.3°F8.5°C 43.6°F6.4°C 87% Calm Calm -- 30.61 in1036.6 mb - 0.00 in0.0 mm 0.00 in0.0 mm
12:30 AM 47.2°F8.4°C 43.9°F6.6°C 88% Calm Calm 2.3 mph3.7 kmh 30.61 in1036.6 mb - 0.00 in0.0 mm 0.00 in0.0 mm
12:40 AM 47.3°F8.5°C 43.9°F6.6°C 88% 3.5 mph NNE5.6 kmh NNE 6.9 mph11.1 kmh 30.61 in1036.6 mb - 0.00 in0.0 mm 0.00 in0.0 mm
12:50 AM 47.4°F8.6°C 44.0°F6.7°C 88% 2.3 mph NE3.7 kmh NE 3.5 mph5.6 kmh 30.61 in1036.6 mb - 0.00 in0.0 mm 0.00 in0.0 mm
01:00 AM 47.4°F8.6°C 44.0°F6.7°C 88% 3.5 mph ENE5.6 kmh ENE 4.6 mph7.4 kmh 30.61 in1036.6 mb - 0.00 in0.0 mm 0.00 in0.0 mm
01:10 AM 47.3°F8.5°C 43.9°F6.6°C 88% 1.1 mph NE1.8 kmh NE 4.6 mph7.4 kmh 30.62 in1036.9 mb - 0.00 in0.0 mm 0.00 in0.0 mm
01:20 AM 47.2°F8.4°C 43.8°F6.6°C 88% 5.8 mph NE9.3 kmh NE 6.9 mph11.1 kmh 30.61 in1036.6 mb - 0.00 in0.0 mm 0.00 in0.0 mm
01:30 AM 47.1°F8.4°C 43.7°F6.5°C 88% 4.6 mph ENE7.4 kmh ENE 5.8 mph9.3 kmh 30.61 in1036.6 mb - 0.00 in0.0 mm 0.00 in0.0 mm
01:40 AM 47.0°F8.3°C 43.6°F6.4°C 88% 4.6 mph ENE7.4 kmh ENE 5.8 mph9.3 kmh 30.61 in1036.6 mb - 0.00 in0.0 mm 0.00 in0.0 mm
01:50 AM 46.9°F8.3°C 43.5°F6.4°C 88% 1.1 mph NE1.8 kmh NE 2.3 mph3.7 kmh 30.61 in1036.6 mb - 0.00 in0.0 mm 0.00 in0.0 mm
02:00 AM 46.8°F8.2°C 43.7°F6.5°C 89% 3.5 mph NE5.6 kmh NE 4.6 mph7.4 kmh 30.61 in1036.6 mb - 0.00 in0.0 mm 0.00 in0.0 mm
02:10 AM 46.7°F8.2°C 43.6°F6.4°C 89% 6.9 mph NNE11.1 kmh NNE 10.4 mph16.7 kmh 30.60 in1036.2 mb - 0.00 in0.0 mm 0.00 in0.0 mm
02:20 AM 46.6°F8.1°C 43.5°F6.4°C 89% 8.1 mph NE13.0 kmh NE 13.8 mph22.2 kmh 30.60 in1036.2 mb - 0.00 in0.0 mm 0.00 in0.0 mm
02:30 AM 46.5°F8.1°C 43.4°F6.3°C 89% 11.5 mph NE18.5 kmh NE 11.5 mph18.5 kmh 30.60 in1036.2 mb - 0.00 in0.0 mm 0.00 in0.0 mm
02:40 AM 46.2°F7.9°C 43.1°F6.2°C 89% 9.2 mph NE14.8 kmh NE 10.4 mph16.7 kmh 30.59 in1035.9 mb - 0.00 in0.0 mm 0.00 in0.0 mm
02:50 AM 45.9°F7.7°C 42.8°F6.0°C 89% 10.4 mph NE16.7 kmh NE 11.5 mph18.5 kmh 30.59 in1035.9 mb - 0.00 in0.0 mm 0.00 in0.0 mm
03:00 AM 45.5°F7.5°C 42.7°F5.9°C 90% 9.2 mph ENE14.8 kmh ENE 12.7 mph20.4 kmh 30.60 in1036.2 mb - 0.00 in0.0 mm 0.00 in0.0 mm
03:10 AM 45.1°F7.3°C 42.3°F5.7°C 90% 6.9 mph ENE11.1 kmh ENE 8.1 mph13.0 kmh 30.60 in1036.2 mb - 0.00 in0.0 mm 0.00 in0.0 mm
03:20 AM 44.7°F7.1°C 41.9°F5.5°C 90% 6.9 mph NE11.1 kmh NE 8.1 mph13.0 kmh 30.59 in1035.9 mb - 0.00 in0.0 mm 0.00 in0.0 mm
03:30 AM 44.5°F6.9°C 41.7°F5.4°C 90% 6.9 mph NE11.1 kmh NE 8.1 mph13.0 kmh 30.60 in1036.2 mb - 0.00 in0.0 mm 0.00 in0.0 mm
03:40 AM 44.2°F6.8°C 41.4°F5.2°C 90% 5.8 mph NE9.3 kmh NE 5.8 mph9.3 kmh 30.60 in1036.2 mb - 0.00 in0.0 mm 0.00 in0.0 mm
03:50 AM 43.8°F6.6°C 41.3°F5.2°C 91% 5.8 mph E9.3 kmh E 8.1 mph13.0 kmh 30.60 in1036.2 mb - 0.00 in0.0 mm 0.00 in0.0 mm
04:00 AM 43.7°F6.5°C 41.2°F5.1°C 91% 8.1 mph ENE13.0 kmh ENE 11.5 mph18.5 kmh 30.60 in1036.2 mb - 0.00 in0.0 mm 0.00 in0.0 mm
04:10 AM 43.6°F6.4°C 41.5°F5.3°C 92% 5.8 mph NE9.3 kmh NE 8.1 mph13.0 kmh 30.60 in1036.2 mb - 0.00 in0.0 mm 0.00 in0.0 mm
04:20 AM 43.3°F6.3°C 40.8°F4.9°C 91% 8.1 mph NE13.0 kmh NE 9.2 mph14.8 kmh 30.59 in1035.9 mb - 0.00 in0.0 mm 0.00 in0.0 mm
04:30 AM 42.7°F5.9°C 40.3°F4.6°C 91% 5.8 mph NE9.3 kmh NE 5.8 mph9.3 kmh 30.59 in1035.9 mb - 0.00 in0.0 mm 0.00 in0.0 mm
04:40 AM 42.5°F5.8°C 40.3°F4.6°C 92% 5.8 mph ENE9.3 kmh ENE 8.1 mph13.0 kmh 30.60 in1036.2 mb - 0.00 in0.0 mm 0.00 in0.0 mm
04:50 AM 42.4°F5.8°C 40.2°F4.6°C 92% 4.6 mph NE7.4 kmh NE 6.9 mph11.1 kmh 30.59 in1035.9 mb - 0.00 in0.0 mm 0.00 in0.0 mm
05:00 AM 42.4°F5.8°C 40.2°F4.6°C 92% 4.6 mph ENE7.4 kmh ENE 5.8 mph9.3 kmh 30.60 in1036.2 mb - 0.00 in0.0 mm 0.00 in0.0 mm
05:10 AM 42.1°F5.6°C 39.9°F4.4°C 92% 3.5 mph ENE5.6 kmh ENE 5.8 mph9.3 kmh 30.60 in1036.2 mb - 0.00 in0.0 mm 0.00 in0.0 mm
05:20 AM 42.0°F5.6°C 39.9°F4.4°C 92% 4.6 mph ENE7.4 kmh ENE 4.6 mph7.4 kmh 30.60 in1036.2 mb - 0.00 in0.0 mm 0.00 in0.0 mm
05:30 AM 42.0°F5.6°C 39.8°F4.3°C 92% Calm Calm 3.5 mph5.6 kmh 30.60 in1036.2 mb - 0.00 in0.0 mm 0.00 in0.0 mm
05:40 AM 41.9°F5.5°C 39.8°F4.3°C 92% 5.8 mph ENE9.3 kmh ENE 6.9 mph11.1 kmh 30.60 in1036.2 mb - 0.00 in0.0 mm 0.00 in0.0 mm
05:50 AM 41.9°F5.5°C 39.7°F4.3°C 92% 4.6 mph NE7.4 kmh NE 5.8 mph9.3 kmh 30.60 in1036.2 mb - 0.00 in0.0 mm 0.00 in0.0 mm
06:00 AM 41.6°F5.3°C 39.4°F4.1°C 92% 6.9 mph NE11.1 kmh NE 6.9 mph11.1 kmh 30.60 in1036.2 mb - 0.00 in0.0 mm 0.00 in0.0 mm
06:10 AM 41.3°F5.2°C 39.2°F4.0°C 92% 5.8 mph ENE9.3 kmh ENE 6.9 mph11.1 kmh 30.60 in1036.2 mb - 0.00 in0.0 mm 0.00 in0.0 mm
06:20 AM 41.1°F5.1°C 39.2°F4.0°C 93% 2.3 mph NE3.7 kmh NE 5.8 mph9.3 kmh 30.60 in1036.2 mb - 0.00 in0.0 mm 0.00 in0.0 mm
06:30 AM 40.9°F4.9°C 38.7°F3.7°C 92% 1.1 mph NE1.8 kmh NE 2.3 mph3.7 kmh 30.60 in1036.2 mb - 0.00 in0.0 mm 0.00 in0.0 mm
06:40 AM 40.7°F4.8°C 38.8°F3.8°C 93% 3.5 mph ENE5.6 kmh ENE 4.6 mph7.4 kmh 30.61 in1036.6 mb - 0.00 in0.0 mm 0.00 in0.0 mm
06:50 AM 40.7°F4.8°C 38.8°F3.8°C 93% 2.3 mph NE3.7 kmh NE 4.6 mph7.4 kmh 30.61 in1036.6 mb - 0.00 in0.0 mm 0.00 in0.0 mm
07:00 AM 40.6°F4.8°C 38.7°F3.7°C 93% 2.3 mph NE3.7 kmh NE 3.5 mph5.6 kmh 30.61 in1036.6 mb - 0.00 in0.0 mm 0.00 in0.0 mm
07:10 AM 40.3°F4.6°C 38.2°F3.4°C 92% Calm Calm -- 30.61 in1036.6 mb - 0.00 in0.0 mm 0.00 in0.0 mm
07:20 AM 40.0°F4.4°C 37.9°F3.3°C 92% Calm Calm -- 30.61 in1036.6 mb - 0.00 in0.0 mm 0.00 in0.0 mm
07:30 AM 39.4°F4.1°C 37.3°F2.9°C 92% 2.3 mph SSW3.7 kmh SSW 3.5 mph5.6 kmh 30.61 in1036.6 mb - 0.00 in0.0 mm 0.00 in0.0 mm
07:40 AM 39.3°F4.1°C 37.4°F3.0°C 93% Calm Calm -- 30.62 in1036.9 mb - 0.00 in0.0 mm 0.00 in0.0 mm
07:50 AM 39.7°F4.3°C 37.8°F3.2°C 93% 2.3 mph NNW3.7 kmh NNW 3.5 mph5.6 kmh 30.62 in1036.9 mb - 0.00 in0.0 mm 0.00 in0.0 mm
08:00 AM 39.9°F4.4°C 38.1°F3.4°C 93% 3.5 mph W5.6 kmh W 4.6 mph7.4 kmh 30.62 in1036.9 mb - 0.00 in0.0 mm 0.00 in0.0 mm
08:10 AM 39.6°F4.2°C 37.7°F3.2°C 93% 3.5 mph SW5.6 kmh SW 3.5 mph5.6 kmh 30.63 in1037.3 mb - 0.00 in0.0 mm 0.00 in0.0 mm
08:20 AM 39.5°F4.2°C 37.6°F3.1°C 93% Calm Calm 2.3 mph3.7 kmh 30.63 in1037.3 mb - 0.00 in0.0 mm 0.00 in0.0 mm
08:30 AM 39.4°F4.1°C 37.6°F3.1°C 93% 4.6 mph ENE7.4 kmh ENE 6.9 mph11.1 kmh 30.63 in1037.3 mb - 0.00 in0.0 mm 0.00 in0.0 mm
08:40 AM 39.6°F4.2°C 38.0°F3.3°C 94% 5.8 mph ENE9.3 kmh ENE 8.1 mph13.0 kmh 30.63 in1037.3 mb - 0.00 in0.0 mm 0.00 in0.0 mm
08:50 AM 39.8°F4.3°C 38.2°F3.4°C 94% 6.9 mph NE11.1 kmh NE 8.1 mph13.0 kmh 30.63 in1037.3 mb - 0.00 in0.0 mm 0.00 in0.0 mm
09:00 AM 40.3°F4.6°C 38.8°F3.8°C 94% 6.9 mph NE11.1 kmh NE 8.1 mph13.0 kmh 30.63 in1037.3 mb - 0.00 in0.0 mm 0.00 in0.0 mm
09:10 AM 40.5°F4.7°C 39.0°F3.9°C 94% 5.8 mph NE9.3 kmh NE 6.9 mph11.1 kmh 30.64 in1037.6 mb - 0.00 in0.0 mm 0.00 in0.0 mm
09:20 AM 40.4°F4.7°C 38.8°F3.8°C 94% 4.6 mph NE7.4 kmh NE 5.8 mph9.3 kmh 30.64 in1037.6 mb - 0.00 in0.0 mm 0.00 in0.0 mm
09:30 AM 40.1°F4.5°C 38.3°F3.5°C 93% 5.8 mph NE9.3 kmh NE 9.2 mph14.8 kmh 30.64 in1037.6 mb - 0.00 in0.0 mm 0.00 in0.0 mm
09:40 AM 39.9°F4.4°C 38.3°F3.5°C 94% 4.6 mph NE7.4 kmh NE 5.8 mph9.3 kmh 30.64 in1037.6 mb - 0.00 in0.0 mm 0.00 in0.0 mm
09:50 AM 39.9°F4.4°C 38.3°F3.5°C 94% 5.8 mph ENE9.3 kmh ENE 9.2 mph14.8 kmh 30.64 in1037.6 mb - 0.00 in0.0 mm 0.00 in0.0 mm
10:00 AM 40.5°F4.7°C 38.9°F3.8°C 94% 6.9 mph NE11.1 kmh NE 6.9 mph11.1 kmh 30.64 in1037.6 mb - 0.00 in0.0 mm 0.00 in0.0 mm
10:10 AM 40.7°F4.8°C 39.1°F3.9°C 94% 3.5 mph NE5.6 kmh NE 4.6 mph7.4 kmh 30.64 in1037.6 mb - 0.00 in0.0 mm 0.00 in0.0 mm
10:20 AM 40.9°F4.9°C 39.3°F4.1°C 94% 5.8 mph NE9.3 kmh NE 5.8 mph9.3 kmh 30.64 in1037.6 mb - 0.00 in0.0 mm 0.00 in0.0 mm
10:30 AM 41.1°F5.1°C 39.2°F4.0°C 93% 2.3 mph NE3.7 kmh NE 4.6 mph7.4 kmh 30.64 in1037.6 mb - 0.00 in0.0 mm 0.00 in0.0 mm
10:40 AM 41.5°F5.3°C 39.6°F4.2°C 93% 1.1 mph NE1.8 kmh NE 3.5 mph5.6 kmh 30.64 in1037.6 mb - 0.00 in0.0 mm 0.00 in0.0 mm
10:50 AM 42.3°F5.7°C 39.9°F4.4°C 91% Calm Calm -- 30.64 in1037.6 mb - 0.00 in0.0 mm 0.00 in0.0 mm
11:00 AM 42.9°F6.1°C 40.2°F4.6°C 90% 1.1 mph NE1.8 kmh NE 2.3 mph3.7 kmh 30.64 in1037.6 mb - 0.00 in0.0 mm 0.00 in0.0 mm
11:10 AM 43.2°F6.2°C 40.2°F4.6°C 89% 2.3 mph SW3.7 kmh SW 3.5 mph5.6 kmh 30.64 in1037.6 mb - 0.00 in0.0 mm 0.00 in0.0 mm
11:20 AM 43.3°F6.3°C 40.2°F4.6°C 89% 1.1 mph SW1.8 kmh SW 3.5 mph5.6 kmh 30.64 in1037.6 mb - 0.00 in0.0 mm 0.00 in0.0 mm
11:30 AM 43.4°F6.3°C 40.4°F4.7°C 89% Calm Calm 3.5 mph5.6 kmh 30.64 in1037.6 mb - 0.00 in0.0 mm 0.00 in0.0 mm
11:40 AM 43.8°F6.6°C 40.8°F4.9°C 89% 3.5 mph ENE5.6 kmh ENE 4.6 mph7.4 kmh 30.64 in1037.6 mb - 0.00 in0.0 mm 0.00 in0.0 mm
11:50 AM 45.5°F7.5°C 41.5°F5.3°C 86% 2.3 mph NE3.7 kmh NE 4.6 mph7.4 kmh 30.63 in1037.3 mb - 0.00 in0.0 mm 0.00 in0.0 mm
12:00 PM 46.2°F7.9°C 41.3°F5.2°C 83% 4.6 mph ENE7.4 kmh ENE 5.8 mph9.3 kmh 30.63 in1037.3 mb - 0.00 in0.0 mm 0.00 in0.0 mm
12:10 PM 46.9°F8.3°C 41.7°F5.4°C 82% 6.9 mph NE11.1 kmh NE 8.1 mph13.0 kmh 30.63 in1037.3 mb - 0.00 in0.0 mm 0.00 in0.0 mm
12:20 PM 48.2°F9.0°C 42.7°F5.9°C 81% 6.9 mph NE11.1 kmh NE 10.4 mph16.7 kmh 30.62 in1036.9 mb - 0.00 in0.0 mm 0.00 in0.0 mm
12:30 PM 49.4°F9.7°C 42.9°F6.1°C 78% 2.3 mph E3.7 kmh E 3.5 mph5.6 kmh 30.62 in1036.9 mb - 0.00 in0.0 mm 0.00 in0.0 mm
12:40 PM 50.7°F10.4°C 43.0°F6.1°C 75% 6.9 mph NE11.1 kmh NE 10.4 mph16.7 kmh 30.62 in1036.9 mb - 0.00 in0.0 mm 0.00 in0.0 mm
12:50 PM 53.5°F11.9°C 39.5°F4.2°C 59% 15.0 mph NE24.1 kmh NE 21.9 mph35.2 kmh 30.62 in1036.9 mb - 0.00 in0.0 mm 0.00 in0.0 mm
01:00 PM 55.4°F13.0°C 37.0°F2.8°C 50% 13.8 mph NE22.2 kmh NE 19.6 mph31.5 kmh 30.62 in1036.9 mb - 0.00 in0.0 mm 0.00 in0.0 mm
01:10 PM 55.9°F13.3°C 36.4°F2.4°C 48% 12.7 mph ENE20.4 kmh ENE 18.4 mph29.6 kmh 30.61 in1036.6 mb - 0.00 in0.0 mm 0.00 in0.0 mm
01:20 PM 56.3°F13.5°C 37.4°F3.0°C 49% 10.4 mph E16.7 kmh E 13.8 mph22.2 kmh 30.61 in1036.6 mb - 0.00 in0.0 mm 0.00 in0.0 mm
01:30 PM 56.6°F13.7°C 36.6°F2.6°C 47% 15.0 mph ENE24.1 kmh ENE 18.4 mph29.6 kmh 30.61 in1036.6 mb - 0.00 in0.0 mm 0.00 in0.0 mm
01:40 PM 56.8°F13.8°C 36.2°F2.3°C 46% 13.8 mph ENE22.2 kmh ENE 19.6 mph31.5 kmh 30.60 in1036.2 mb - 0.00 in0.0 mm 0.00 in0.0 mm
01:50 PM 56.9°F13.8°C 36.9°F2.7°C 47% 16.1 mph ENE25.9 kmh ENE 19.6 mph31.5 kmh 30.60 in1036.2 mb - 0.00 in0.0 mm 0.00 in0.0 mm
02:00 PM 57.3°F14.1°C 37.2°F2.9°C 47% 11.5 mph NE18.5 kmh NE 18.4 mph29.6 kmh 30.59 in1035.9 mb - 0.00 in0.0 mm 0.00 in0.0 mm
02:10 PM 57.4°F14.1°C 37.9°F3.3°C 48% 18.4 mph ENE29.6 kmh ENE 25.3 mph40.7 kmh 30.59 in1035.9 mb - 0.00 in0.0 mm 0.00 in0.0 mm
02:20 PM 57.4°F14.1°C 37.3°F2.9°C 47% 16.1 mph E25.9 kmh E 20.7 mph33.3 kmh 30.58 in1035.6 mb - 0.00 in0.0 mm 0.00 in0.0 mm
02:30 PM 57.3°F14.1°C 37.3°F2.9°C 47% 17.3 mph NE27.8 kmh NE 26.5 mph42.6 kmh 30.58 in1035.6 mb - 0.00 in0.0 mm 0.00 in0.0 mm
02:40 PM 57.4°F14.1°C 37.9°F3.3°C 48% 12.7 mph ENE20.4 kmh ENE 18.4 mph29.6 kmh 30.57 in1035.2 mb - 0.00 in0.0 mm 0.00 in0.0 mm
02:50 PM 57.6°F14.2°C 37.5°F3.1°C 47% 9.2 mph E14.8 kmh E 12.7 mph20.4 kmh 30.57 in1035.2 mb - 0.00 in0.0 mm 0.00 in0.0 mm
03:00 PM 57.6°F14.2°C 38.0°F3.3°C 48% 11.5 mph ENE18.5 kmh ENE 19.6 mph31.5 kmh 30.56 in1034.9 mb - 0.00 in0.0 mm 0.00 in0.0 mm
03:10 PM 57.8°F14.3°C 38.2°F3.4°C 48% 13.8 mph NE22.2 kmh NE 19.6 mph31.5 kmh 30.56 in1034.9 mb - 0.00 in0.0 mm 0.00 in0.0 mm
03:20 PM 58.1°F14.5°C 38.5°F3.6°C 48% 13.8 mph NE22.2 kmh NE 25.3 mph40.7 kmh 30.56 in1034.9 mb - 0.00 in0.0 mm 0.00 in0.0 mm
03:30 PM 58.0°F14.4°C 37.3°F2.9°C 46% 15.0 mph ENE24.1 kmh ENE 26.5 mph42.6 kmh 30.55 in1034.5 mb - 0.00 in0.0 mm 0.00 in0.0 mm
03:40 PM 58.1°F14.5°C 38.5°F3.6°C 48% 10.4 mph ENE16.7 kmh ENE 11.5 mph18.5 kmh 30.55 in1034.5 mb - 0.00 in0.0 mm 0.00 in0.0 mm
03:50 PM 58.4°F14.7°C 37.7°F3.2°C 46% 15.0 mph ENE24.1 kmh ENE 20.7 mph33.3 kmh 30.55 in1034.5 mb - 0.00 in0.0 mm 0.00 in0.0 mm
04:00 PM 58.3°F14.6°C 38.2°F3.4°C 47% 9.2 mph NE14.8 kmh NE 13.8 mph22.2 kmh 30.54 in1034.2 mb - 0.00 in0.0 mm 0.00 in0.0 mm
04:10 PM 58.3°F14.6°C 38.7°F3.7°C 48% 13.8 mph NE22.2 kmh NE 19.6 mph31.5 kmh 30.54 in1034.2 mb - 0.00 in0.0 mm 0.00 in0.0 mm
04:20 PM 58.4°F14.7°C 38.8°F3.8°C 48% 9.2 mph NE14.8 kmh NE 15.0 mph24.1 kmh 30.54 in1034.2 mb - 0.00 in0.0 mm 0.00 in0.0 mm
04:30 PM 58.1°F14.5°C 38.5°F3.6°C 48% 11.5 mph ENE18.5 kmh ENE 18.4 mph29.6 kmh 30.55 in1034.5 mb - 0.00 in0.0 mm 0.00 in0.0 mm
04:40 PM 58.3°F14.6°C 38.2°F3.4°C 47% 12.7 mph ENE20.4 kmh ENE 16.1 mph25.9 kmh 30.54 in1034.2 mb - 0.00 in0.0 mm 0.00 in0.0 mm
04:50 PM 58.2°F14.6°C 38.1°F3.4°C 47% 6.9 mph E11.1 kmh E 11.5 mph18.5 kmh 30.55 in1034.5 mb - 0.00 in0.0 mm 0.00 in0.0 mm
05:00 PM 58.1°F14.5°C 38.0°F3.3°C 47% 13.8 mph ENE22.2 kmh ENE 16.1 mph25.9 kmh 30.54 in1034.2 mb - 0.00 in0.0 mm 0.00 in0.0 mm
05:10 PM 58.0°F14.4°C 38.4°F3.6°C 48% 12.7 mph NE20.4 kmh NE 15.0 mph24.1 kmh 30.54 in1034.2 mb - 0.00 in0.0 mm 0.00 in0.0 mm
05:20 PM 57.8°F14.3°C 38.8°F3.8°C 49% 11.5 mph NE18.5 kmh NE 19.6 mph31.5 kmh 30.54 in1034.2 mb - 0.00 in0.0 mm 0.00 in0.0 mm
05:30 PM 57.9°F14.4°C 37.8°F3.2°C 47% 9.2 mph ENE14.8 kmh ENE 10.4 mph16.7 kmh 30.54 in1034.2 mb - 0.00 in0.0 mm 0.00 in0.0 mm
05:40 PM 57.8°F14.3°C 37.7°F3.2°C 47% 10.4 mph E16.7 kmh E 13.8 mph22.2 kmh 30.54 in1034.2 mb - 0.00 in0.0 mm 0.00 in0.0 mm
05:50 PM 57.7°F14.3°C 37.0°F2.8°C 46% 8.1 mph E13.0 kmh E 10.4 mph16.7 kmh 30.55 in1034.5 mb - 0.00 in0.0 mm 0.00 in0.0 mm
06:00 PM 57.3°F14.1°C 37.8°F3.2°C 48% 8.1 mph ENE13.0 kmh ENE 10.4 mph16.7 kmh 30.55 in1034.5 mb - 0.00 in0.0 mm 0.00 in0.0 mm
06:10 PM 56.7°F13.7°C 38.2°F3.4°C 50% 10.4 mph NE16.7 kmh NE 16.1 mph25.9 kmh 30.55 in1034.5 mb - 0.00 in0.0 mm 0.00 in0.0 mm
06:20 PM 56.9°F13.8°C 37.4°F3.0°C 48% 10.4 mph ENE16.7 kmh ENE 12.7 mph20.4 kmh 30.56 in1034.9 mb - 0.00 in0.0 mm 0.00 in0.0 mm
06:30 PM 56.5°F13.6°C 37.6°F3.1°C 49% 9.2 mph NE14.8 kmh NE 11.5 mph18.5 kmh 30.56 in1034.9 mb - 0.00 in0.0 mm 0.00 in0.0 mm
06:40 PM 56.1°F13.4°C 37.7°F3.2°C 50% 8.1 mph NE13.0 kmh NE 11.5 mph18.5 kmh 30.56 in1034.9 mb - 0.00 in0.0 mm 0.00 in0.0 mm
06:50 PM 55.7°F13.2°C 37.3°F2.9°C 50% 5.8 mph NE9.3 kmh NE 8.1 mph13.0 kmh 30.57 in1035.2 mb - 0.00 in0.0 mm 0.00 in0.0 mm
07:00 PM 55.3°F12.9°C 37.5°F3.1°C 51% 9.2 mph NE14.8 kmh NE 11.5 mph18.5 kmh 30.57 in1035.2 mb - 0.00 in0.0 mm 0.00 in0.0 mm
07:10 PM 55.0°F12.8°C 37.2°F2.9°C 51% 10.4 mph NE16.7 kmh NE 11.5 mph18.5 kmh 30.58 in1035.6 mb - 0.00 in0.0 mm 0.00 in0.0 mm
07:20 PM 54.5°F12.5°C 37.7°F3.2°C 53% 6.9 mph NE11.1 kmh NE 10.4 mph16.7 kmh 30.58 in1035.6 mb - 0.00 in0.0 mm 0.00 in0.0 mm
07:30 PM 53.7°F12.1°C 37.9°F3.3°C 55% 9.2 mph NE14.8 kmh NE 11.5 mph18.5 kmh 30.58 in1035.6 mb - 0.00 in0.0 mm 0.00 in0.0 mm
07:40 PM 53.0°F11.7°C 37.7°F3.2°C 56% 9.2 mph ENE14.8 kmh ENE 11.5 mph18.5 kmh 30.59 in1035.9 mb - 0.00 in0.0 mm 0.00 in0.0 mm
07:50 PM 52.0°F11.1°C 38.1°F3.4°C 59% 12.7 mph ENE20.4 kmh ENE 18.4 mph29.6 kmh 30.59 in1035.9 mb - 0.00 in0.0 mm 0.00 in0.0 mm
08:00 PM 51.8°F11.0°C 37.9°F3.3°C 59% 9.2 mph ENE14.8 kmh ENE 11.5 mph18.5 kmh 30.59 in1035.9 mb - 0.00 in0.0 mm 0.00 in0.0 mm
08:10 PM 51.6°F10.9°C 37.7°F3.2°C 59% 6.9 mph NE11.1 kmh NE 9.2 mph14.8 kmh 30.60 in1036.2 mb - 0.00 in0.0 mm 0.00 in0.0 mm
08:20 PM 51.4°F10.8°C 37.5°F3.1°C 59% Calm Calm 2.3 mph3.7 kmh 30.61 in1036.6 mb - 0.00 in0.0 mm 0.00 in0.0 mm
08:30 PM 51.1°F10.6°C 37.7°F3.2°C 60% Calm Calm -- 30.61 in1036.6 mb - 0.00 in0.0 mm 0.00 in0.0 mm
08:40 PM 51.1°F10.6°C 37.7°F3.2°C 60% 5.8 mph NE9.3 kmh NE 8.1 mph13.0 kmh 30.61 in1036.6 mb - 0.00 in0.0 mm 0.00 in0.0 mm
08:50 PM 51.2°F10.7°C 37.8°F3.2°C 60% 8.1 mph ENE13.0 kmh ENE 8.1 mph13.0 kmh 30.61 in1036.6 mb - 0.00 in0.0 mm 0.00 in0.0 mm
09:00 PM 51.1°F10.6°C 37.7°F3.2°C 60% 4.6 mph ENE7.4 kmh ENE 5.8 mph9.3 kmh 30.62 in1036.9 mb - 0.00 in0.0 mm 0.00 in0.0 mm
09:10 PM 50.8°F10.4°C 37.8°F3.2°C 61% 6.9 mph NE11.1 kmh NE 6.9 mph11.1 kmh 30.62 in1036.9 mb - 0.00 in0.0 mm 0.00 in0.0 mm
09:20 PM 50.8°F10.4°C 37.8°F3.2°C 61% 5.8 mph NE9.3 kmh NE 5.8 mph9.3 kmh 30.63 in1037.3 mb - 0.00 in0.0 mm 0.00 in0.0 mm
09:30 PM 50.9°F10.5°C 37.9°F3.3°C 61% 5.8 mph NE9.3 kmh NE 6.9 mph11.1 kmh 30.63 in1037.3 mb - 0.00 in0.0 mm 0.00 in0.0 mm
09:40 PM 51.2°F10.7°C 38.2°F3.4°C 61% 5.8 mph NE9.3 kmh NE 6.9 mph11.1 kmh 30.63 in1037.3 mb - 0.00 in0.0 mm 0.00 in0.0 mm
09:50 PM 50.6°F10.3°C 38.1°F3.4°C 62% 9.2 mph NE14.8 kmh NE 12.7 mph20.4 kmh 30.62 in1036.9 mb - 0.00 in0.0 mm 0.00 in0.0 mm
10:00 PM 51.1°F10.6°C 38.5°F3.6°C 62% 9.2 mph NE14.8 kmh NE 11.5 mph18.5 kmh 30.63 in1037.3 mb - 0.00 in0.0 mm 0.00 in0.0 mm
10:10 PM 50.1°F10.1°C 38.0°F3.3°C 63% 8.1 mph NE13.0 kmh NE 10.4 mph16.7 kmh 30.63 in1037.3 mb - 0.00 in0.0 mm 0.00 in0.0 mm
10:20 PM 49.6°F9.8°C 38.3°F3.5°C 65% 9.2 mph NE14.8 kmh NE 11.5 mph18.5 kmh 30.62 in1036.9 mb - 0.00 in0.0 mm 0.00 in0.0 mm
10:30 PM 49.3°F9.6°C 38.4°F3.6°C 66% 6.9 mph NE11.1 kmh NE 9.2 mph14.8 kmh 30.63 in1037.3 mb - 0.00 in0.0 mm 0.00 in0.0 mm
10:40 PM 49.6°F9.8°C 38.3°F3.5°C 65% 6.9 mph NE11.1 kmh NE 9.2 mph14.8 kmh 30.63 in1037.3 mb - 0.00 in0.0 mm 0.00 in0.0 mm
10:50 PM 50.0°F10.0°C 38.3°F3.5°C 64% 6.9 mph NE11.1 kmh NE 8.1 mph13.0 kmh 30.63 in1037.3 mb - 0.00 in0.0 mm 0.00 in0.0 mm
11:00 PM 49.8°F9.9°C 38.1°F3.4°C 64% 5.8 mph NE9.3 kmh NE 8.1 mph13.0 kmh 30.63 in1037.3 mb - 0.00 in0.0 mm 0.00 in0.0 mm
11:10 PM 49.7°F9.8°C 38.4°F3.6°C 65% 6.9 mph ENE11.1 kmh ENE 9.2 mph14.8 kmh 30.62 in1036.9 mb - 0.00 in0.0 mm 0.00 in0.0 mm
11:20 PM 49.2°F9.6°C 38.3°F3.5°C 66% 12.7 mph NE20.4 kmh NE 16.1 mph25.9 kmh 30.62 in1036.9 mb - 0.00 in0.0 mm 0.00 in0.0 mm
11:30 PM 49.9°F9.9°C 38.6°F3.7°C 65% 1.1 mph E1.8 kmh E 3.5 mph5.6 kmh 30.62 in1036.9 mb - 0.00 in0.0 mm 0.00 in0.0 mm
11:40 PM 49.6°F9.8°C 38.3°F3.5°C 65% 9.2 mph NE14.8 kmh NE 10.4 mph16.7 kmh 30.62 in1036.9 mb - 0.00 in0.0 mm 0.00 in0.0 mm
11:50 PM 50.6°F10.3°C 38.4°F3.6°C 63% 8.1 mph NNE13.0 kmh NNE 11.5 mph18.5 kmh 30.62 in1036.9 mb - 0.00 in0.0 mm 0.00 in0.0 mm